createdAt,value
2023-05-24T00:04:40.059Z,100197.00
2023-05-24T00:09:42.463Z,100193.60
2023-05-24T00:14:44.353Z,100191.40
2023-05-24T00:19:46.230Z,100187.40
2023-05-24T00:24:48.412Z,100197.80
2023-05-24T00:29:50.296Z,100194.60
2023-05-24T00:34:52.154Z,100194.00
2023-05-24T00:39:54.040Z,100187.60
2023-05-24T00:44:55.941Z,100192.60
2023-05-24T00:49:58.201Z,100187.60
2023-05-24T00:55:00.300Z,100178.20
2023-05-24T01:00:05.401Z,100170.60
2023-05-24T01:05:08.238Z,100180.40
2023-05-24T01:10:44.450Z,100176.20
2023-05-24T01:15:49.504Z,100176.00
2023-05-24T01:21:26.522Z,100171.60
2023-05-24T01:27:02.256Z,100184.00
2023-05-24T01:32:05.324Z,100179.40
2023-05-24T01:37:07.149Z,100181.40
2023-05-24T01:42:25.435Z,100181.80
2023-05-24T01:47:27.221Z,100182.00
2023-05-24T01:52:34.861Z,100187.60
2023-05-24T01:57:40.825Z,100192.80
2023-05-24T02:02:43.251Z,100192.40
2023-05-24T02:07:45.834Z,100191.80
2023-05-24T02:12:47.608Z,100193.60
2023-05-24T02:17:49.457Z,100189.00
2023-05-24T02:22:51.264Z,100190.40
2023-05-24T02:27:53.142Z,100185.00
2023-05-24T02:32:55.932Z,100183.20
2023-05-24T02:37:58.229Z,100188.60
2023-05-24T02:43:00.019Z,100190.20
2023-05-24T02:48:02.146Z,100179.20
2023-05-24T02:53:04.062Z,100185.40
2023-05-24T02:58:05.959Z,100180.00
2023-05-24T03:03:07.959Z,100189.40
2023-05-24T03:08:09.900Z,100188.60
2023-05-24T03:13:11.817Z,100186.40
2023-05-24T03:18:13.759Z,100184.20
2023-05-24T03:23:16.153Z,100189.60
2023-05-24T03:28:18.744Z,100186.80
2023-05-24T03:33:20.829Z,100190.80
2023-05-24T03:38:22.622Z,100197.80
2023-05-24T03:43:24.686Z,100202.00
2023-05-24T03:48:26.660Z,100201.20
2023-05-24T03:53:28.573Z,100202.80
2023-05-24T03:58:30.726Z,100203.00
2023-05-24T04:03:33.764Z,100199.80
2023-05-24T04:08:36.018Z,100206.40
2023-05-24T04:13:37.898Z,100203.40
2023-05-24T04:18:39.992Z,100208.20
2023-05-24T04:23:42.159Z,100213.60
2023-05-24T04:28:45.277Z,100212.40
2023-05-24T04:33:47.554Z,100218.00
2023-05-24T04:38:50.078Z,100227.00
2023-05-24T04:43:52.949Z,100227.80
2023-05-24T04:48:54.833Z,100230.40
2023-05-24T04:53:56.638Z,100238.60
2023-05-24T04:58:58.374Z,100242.60
2023-05-24T05:04:00.587Z,100245.60
2023-05-24T05:09:02.483Z,100245.40
2023-05-24T05:14:05.680Z,100254.80
2023-05-24T05:19:08.036Z,100257.80
2023-05-24T05:24:09.826Z,100264.00
2023-05-24T05:29:11.605Z,100269.20
2023-05-24T05:34:13.496Z,100271.40
2023-05-24T05:39:15.448Z,100278.40
2023-05-24T05:44:17.657Z,100276.60
2023-05-24T05:49:20.337Z,100284.40
2023-05-24T05:54:22.460Z,100284.80
2023-05-24T05:59:24.542Z,100287.20
2023-05-24T06:04:26.517Z,100291.80
2023-05-24T06:09:28.442Z,100292.20
2023-05-24T06:14:31.268Z,100300.60
2023-05-24T06:19:33.449Z,100298.00
2023-05-24T06:24:36.143Z,100304.00
2023-05-24T06:29:38.043Z,100313.20
2023-05-24T06:34:39.789Z,100317.00
2023-05-24T06:39:41.875Z,100315.60
2023-05-24T06:44:43.953Z,100320.60
2023-05-24T06:49:47.675Z,100332.60
2023-05-24T06:54:50.194Z,100332.20
2023-05-24T06:59:52.246Z,100332.00
2023-05-24T07:04:54.583Z,100332.80
2023-05-24T07:09:56.612Z,100335.60
2023-05-24T07:14:58.596Z,100342.40
2023-05-24T07:20:01.940Z,100347.20
2023-05-24T07:25:05.217Z,100354.20
2023-05-24T07:30:16.422Z,100362.00
2023-05-24T07:35:28.947Z,100367.00
2023-05-24T07:40:30.814Z,100370.20
2023-05-24T07:45:33.522Z,100375.80
2023-05-24T07:50:36.018Z,100377.40
2023-05-24T07:55:38.563Z,100379.40
2023-05-24T08:00:40.922Z,100386.00
2023-05-24T08:05:43.600Z,100378.80
2023-05-24T08:10:45.768Z,100392.20
2023-05-24T08:15:48.067Z,100394.20
2023-05-24T08:20:50.352Z,100399.20
2023-05-24T08:25:53.053Z,100403.20
2023-05-24T08:30:55.471Z,100407.60
2023-05-24T08:35:57.510Z,100405.80
2023-05-24T08:41:00.135Z,100412.40
2023-05-24T08:46:03.895Z,100416.80
2023-05-24T08:51:07.242Z,100426.60
2023-05-24T08:56:10.075Z,100421.00
2023-05-24T09:01:14.563Z,100418.60
2023-05-24T09:06:18.976Z,100422.00
2023-05-24T09:11:23.870Z,100422.20
2023-05-24T09:16:26.003Z,100431.00
2023-05-24T09:21:29.199Z,100427.60
2023-05-24T09:26:31.542Z,100436.40
2023-05-24T09:31:36.434Z,100441.40
2023-05-24T09:36:42.604Z,100443.00
2023-05-24T09:41:56.712Z,100447.60
2023-05-24T09:47:06.222Z,100449.00
2023-05-24T09:52:08.102Z,100458.20
2023-05-24T09:57:10.867Z,100459.00
2023-05-24T10:02:13.056Z,100458.20
2023-05-24T10:07:16.427Z,100459.60
2023-05-24T10:12:22.575Z,100457.80
2023-05-24T10:17:27.682Z,100458.40
2023-05-24T10:22:32.354Z,100461.80
2023-05-24T10:27:36.451Z,100460.00
2023-05-24T10:32:40.734Z,100465.40
2023-05-24T10:37:42.698Z,100460.40
2023-05-24T10:42:45.418Z,100470.40
2023-05-24T10:47:47.281Z,100470.00
2023-05-24T10:52:49.554Z,100469.80
2023-05-24T10:57:52.148Z,100467.60
2023-05-24T11:03:08.811Z,100469.40
2023-05-24T11:08:11.051Z,100463.60
2023-05-24T11:13:14.376Z,100466.60
2023-05-24T11:18:17.014Z,100466.60
2023-05-24T11:23:20.167Z,100459.00
2023-05-24T11:28:23.163Z,100464.40
2023-05-24T11:33:25.049Z,100466.80
2023-05-24T11:38:27.241Z,100465.20
2023-05-24T11:43:31.054Z,100466.20
2023-05-24T11:48:33.453Z,100465.40
2023-05-24T11:53:35.872Z,100466.60
2023-05-24T11:58:55.686Z,100471.20
2023-05-24T12:03:57.804Z,100474.00
2023-05-24T12:08:59.908Z,100473.60
2023-05-24T12:14:02.291Z,100476.40
2023-05-24T12:19:07.425Z,100474.20
2023-05-24T12:24:17.036Z,100474.80
2023-05-24T12:29:19.404Z,100476.00
2023-05-24T12:34:21.189Z,100478.20
2023-05-24T12:39:30.955Z,100487.00
2023-05-24T12:44:38.070Z,100484.80
2023-05-24T12:49:39.934Z,100489.80
2023-05-24T12:54:41.794Z,100490.40
2023-05-24T12:59:43.787Z,100495.00
2023-05-24T13:04:46.168Z,100496.40
2023-05-24T13:09:49.063Z,100495.00
2023-05-24T13:14:52.806Z,100497.60
2023-05-24T13:19:57.019Z,100496.80
2023-05-24T13:24:58.818Z,100499.80
2023-05-24T13:30:01.528Z,100499.00
2023-05-24T13:35:06.652Z,100500.00
2023-05-24T13:40:11.242Z,100500.40
2023-05-24T13:45:13.271Z,100502.60
2023-05-24T13:50:15.237Z,100500.60
2023-05-24T13:55:17.007Z,100502.00
2023-05-24T14:00:19.839Z,100505.60
2023-05-24T14:05:27.324Z,100505.40
2023-05-24T14:10:29.938Z,100507.40
2023-05-24T14:15:33.533Z,100499.60
2023-05-24T14:20:37.348Z,100492.80
2023-05-24T14:25:40.948Z,100494.40
2023-05-24T14:30:43.357Z,100492.60
2023-05-24T14:35:46.206Z,100497.00
2023-05-24T14:40:48.664Z,100493.80
2023-05-24T14:45:51.110Z,100497.20
2023-05-24T14:50:53.230Z,100504.20
2023-05-24T14:55:55.309Z,100502.00
2023-05-24T15:00:57.262Z,100504.60
2023-05-24T15:05:59.388Z,100503.20
2023-05-24T15:11:01.559Z,100506.60
2023-05-24T15:16:04.148Z,100503.00
2023-05-24T15:21:06.048Z,100505.60
2023-05-24T15:26:07.934Z,100508.20
2023-05-24T15:31:10.422Z,100508.80
2023-05-24T15:36:14.020Z,100510.20
2023-05-24T15:41:15.925Z,100513.00
2023-05-24T15:46:21.496Z,100507.40
2023-05-24T15:52:01.642Z,100511.60
2023-05-24T15:56:45.183Z,100505.00
2023-05-24T16:01:47.149Z,100502.60
2023-05-24T16:06:49.408Z,100507.00
2023-05-24T16:11:51.631Z,100512.20
2023-05-24T16:16:54.237Z,100520.20
2023-05-24T16:21:57.042Z,100530.20
2023-05-24T16:26:59.428Z,100529.80
2023-05-24T16:32:01.422Z,100531.00
2023-05-24T16:37:03.273Z,100533.00
2023-05-24T16:42:06.716Z,100539.20
2023-05-24T16:47:08.701Z,100540.20
2023-05-24T16:52:10.857Z,100544.60
2023-05-24T16:57:12.741Z,100544.40
2023-05-24T17:02:15.026Z,100541.80
2023-05-24T17:07:16.802Z,100546.80
2023-05-24T17:12:20.756Z,100550.20
2023-05-24T17:17:22.744Z,100551.80
2023-05-24T17:22:24.577Z,100558.20
2023-05-24T17:27:26.465Z,100561.60
2023-05-24T17:32:28.267Z,100569.60
2023-05-24T17:37:30.215Z,100565.20
2023-05-24T17:42:32.292Z,100566.80
2023-05-24T17:47:34.525Z,100574.80
2023-05-24T17:52:36.897Z,100575.00
2023-05-24T17:57:38.840Z,100580.00
2023-05-24T18:02:41.116Z,100583.20
2023-05-24T18:07:43.314Z,100586.40
2023-05-24T18:12:45.213Z,100592.60
2023-05-24T18:17:47.085Z,100604.00
2023-05-24T18:22:49.250Z,100610.00
2023-05-24T18:27:51.363Z,100615.40
2023-05-24T18:38:05.156Z,100622.20
2023-05-24T18:43:07.129Z,100629.00
2023-05-24T18:48:09.355Z,100634.20
2023-05-24T18:53:11.379Z,100639.80
2023-05-24T18:58:16.468Z,100643.40
2023-05-24T19:03:18.624Z,100647.80
2023-05-24T19:08:20.697Z,100647.60
2023-05-24T19:13:22.615Z,100650.60
2023-05-24T19:18:24.677Z,100652.00
2023-05-24T19:23:27.184Z,100658.20
2023-05-24T19:28:29.953Z,100656.80
2023-05-24T19:33:31.825Z,100662.00
2023-05-24T19:38:33.850Z,100662.00
2023-05-24T19:43:36.098Z,100659.20
2023-05-24T19:48:39.000Z,100662.40
2023-05-24T19:53:41.387Z,100667.00
2023-05-24T19:58:43.785Z,100674.80
2023-05-24T20:03:48.426Z,100672.80
2023-05-24T20:08:52.471Z,100673.60
2023-05-24T20:13:55.655Z,100673.20
2023-05-24T20:18:57.831Z,100674.80
2023-05-24T20:23:59.730Z,100669.60
2023-05-24T20:29:01.696Z,100667.80
2023-05-24T20:34:03.881Z,100669.80
2023-05-24T20:39:06.398Z,100673.00
2023-05-24T20:44:08.252Z,100675.80
2023-05-24T20:49:10.156Z,100684.00
2023-05-24T20:54:13.593Z,100685.20
2023-05-24T20:59:15.727Z,100682.60
2023-05-24T21:04:19.136Z,100681.60
2023-05-24T21:09:21.637Z,100685.20
2023-05-24T21:14:23.544Z,100692.20
2023-05-24T21:19:25.601Z,100699.00
2023-05-24T21:24:27.582Z,100707.60
2023-05-24T21:29:29.759Z,100714.80
2023-05-24T21:34:31.525Z,100717.20
2023-05-24T21:39:33.429Z,100720.80
2023-05-24T21:44:35.328Z,100716.00
2023-05-24T21:49:37.574Z,100721.80
2023-05-24T21:54:39.452Z,100725.00
2023-05-24T21:59:41.332Z,100729.40
2023-05-24T22:04:43.329Z,100722.80
2023-05-24T22:09:45.488Z,100719.80
2023-05-24T22:14:47.673Z,100721.20
2023-05-24T22:19:49.742Z,100726.00
2023-05-24T22:24:51.652Z,100721.60
2023-05-24T22:29:56.808Z,100720.80
2023-05-24T22:34:58.680Z,100719.60
2023-05-24T22:40:00.544Z,100718.60
2023-05-24T22:45:03.083Z,100716.00
2023-05-24T22:50:07.588Z,100711.60
2023-05-24T22:55:13.265Z,100716.40
2023-05-24T23:00:16.041Z,100719.40
2023-05-24T23:05:21.209Z,100723.20
2023-05-24T23:10:23.070Z,100723.40
2023-05-24T23:15:28.665Z,100723.40
2023-05-24T23:20:30.753Z,100728.20
2023-05-24T23:25:34.235Z,100727.00
2023-05-24T23:30:36.029Z,100725.80
2023-05-24T23:35:40.858Z,100728.80
2023-05-24T23:40:42.853Z,100720.60
2023-05-24T23:45:45.231Z,100722.00
2023-05-24T23:50:53.904Z,100726.80
2023-05-24T23:55:56.389Z,100739.20
